Time;durP1;ratioP1;P1;durP2;ratioP2;P2;SDS_P1;SDS_P2;PMS_P1;PMS_P2;Temp;Humidity;BMP_temperature;BMP_pressure;BME280_temperature;BME280_humidity;BME280_pressure;Samples;Min_cycle;Max_cycle;Signal;HPM_P1;HPM_P2
2023/11/13 00:02:23;;;;;;;10.10;7.30;;;;;;;0.16;100.00;97206.34;110481;1241;60471;-65
2023/11/13 00:04:53;;;;;;;8.40;6.60;;;;;;;0.15;100.00;97211.89;110480;1239;71605;-65
2023/11/13 00:07:24;;;;;;;9.80;7.10;;;;;;;0.14;100.00;97211.40;110494;1241;69132;-65
2023/11/13 00:09:55;;;;;;;8.10;6.20;;;;;;;0.11;100.00;97209.61;110471;1241;68555;-65
2023/11/13 00:12:25;;;;;;;10.20;7.00;;;;;;;0.10;100.00;97211.39;110501;1239;60475;-65
2023/11/13 00:14:56;;;;;;;9.80;6.80;;;;;;;0.08;100.00;97211.42;110421;1239;60479;-65
2023/11/13 00:17:26;;;;;;;9.70;6.80;;;;;;;0.06;100.00;97214.60;110537;1240;71443;-65
2023/11/13 00:19:57;;;;;;;9.80;7.90;;;;;;;0.03;100.00;97219.30;110524;1241;69236;-65
2023/11/13 00:22:29;;;;;;;10.30;7.10;;;;;;;0.02;100.00;97222.63;110499;1242;69142;-65
2023/11/13 00:25:01;;;;;;;10.10;7.80;;;;;;;0.02;100.00;97226.41;110407;1241;60506;-65
2023/11/13 00:27:34;;;;;;;9.60;5.90;;;;;;;0.01;100.00;97227.29;110357;1241;60573;-65
2023/11/13 00:30:07;;;;;;;9.70;6.80;;;;;;;0.02;100.00;97227.27;110244;1242;72225;-65
2023/11/13 00:32:38;;;;;;;10.40;6.80;;;;;;;0.02;100.00;97227.58;110453;1244;69073;-65
2023/11/13 00:35:11;;;;;;;11.30;8.40;;;;;;;0.05;100.00;97225.09;110479;1240;69299;-65
2023/11/13 00:37:42;;;;;;;10.80;6.90;;;;;;;0.06;100.00;97227.63;110327;1242;60546;-65
2023/11/13 00:40:15;;;;;;;12.10;7.00;;;;;;;0.08;100.00;97230.30;110466;1241;60419;-65
2023/11/13 00:42:47;;;;;;;7.20;6.00;;;;;;;0.10;100.00;97230.90;110482;1242;71446;-65
2023/11/13 00:45:18;;;;;;;8.80;6.50;;;;;;;0.13;100.00;97238.52;110353;1239;68364;-65
2023/11/13 00:47:48;;;;;;;8.40;6.20;;;;;;;0.16;100.00;97238.94;110395;1242;69188;-65
2023/11/13 00:50:21;;;;;;;9.30;6.80;;;;;;;0.18;100.00;97242.10;110471;1245;60578;-65
2023/11/13 00:52:52;;;;;;;9.70;6.00;;;;;;;0.19;100.00;97240.91;110338;1240;60538;-65
2023/11/13 00:55:23;;;;;;;8.80;6.40;;;;;;;0.17;100.00;97234.79;110420;1241;71388;-65
2023/11/13 00:57:53;;;;;;;9.60;6.10;;;;;;;0.14;100.00;97235.40;110392;1241;69237;-65
2023/11/13 01:00:25;;;;;;;7.70;5.80;;;;;;;0.11;100.00;97237.39;110550;1241;68464;-65
2023/11/13 01:02:54;;;;;;;9.70;6.60;;;;;;;0.07;100.00;97237.34;110289;1242;60529;-65
2023/11/13 01:05:25;;;;;;;9.00;5.70;;;;;;;0.03;100.00;97239.89;110413;1241;60495;-65
2023/11/13 01:07:59;;;;;;;7.40;5.10;;;;;;;-0.03;100.00;97237.16;110470;1242;72280;-65
2023/11/13 01:10:31;;;;;;;7.90;5.60;;;;;;;-0.08;100.00;97237.34;110328;1241;68595;-65
2023/11/13 01:13:07;;;;;;;8.20;5.30;;;;;;;-0.14;100.00;97237.18;110313;1240;68673;-65
2023/11/13 01:15:43;;;;;;;10.90;7.10;;;;;;;-0.19;100.00;97236.70;110324;1241;60516;-65
2023/11/13 01:18:19;;;;;;;9.60;6.60;;;;;;;-0.26;100.00;97231.73;110323;1241;60422;-65
2023/11/13 01:20:51;;;;;;;10.00;6.70;;;;;;;-0.30;100.00;97230.17;110409;1242;71292;-65
2023/11/13 01:23:24;;;;;;;8.80;6.10;;;;;;;-0.34;100.00;97229.09;110364;1241;68772;-65
2023/11/13 01:25:56;;;;;;;9.80;6.80;;;;;;;-0.36;100.00;97231.07;110392;1243;68858;-65
2023/11/13 01:28:27;;;;;;;16.40;10.60;;;;;;;-0.40;100.00;97231.01;110303;1242;60449;-66
2023/11/13 01:31:02;;;;;;;16.20;10.20;;;;;;;-0.46;100.00;97232.58;110201;1240;60553;-65
2023/11/13 01:33:36;;;;;;;11.40;7.70;;;;;;;-0.54;100.00;97234.34;110320;1243;72202;-65
2023/11/13 01:36:08;;;;;;;11.70;8.20;;;;;;;-0.61;100.00;97227.06;110446;1241;69750;-65
2023/11/13 01:38:39;;;;;;;11.80;8.10;;;;;;;-0.68;100.00;97219.20;110290;1243;69107;-65
2023/11/13 01:41:11;;;;;;;10.90;7.90;;;;;;;-0.74;100.00;97224.53;110443;1241;60470;-66
2023/11/13 01:43:50;;;;;;;10.00;6.80;;;;;;;-0.80;100.00;97234.14;110434;1241;60434;-65
2023/11/13 01:46:22;;;;;;;9.00;6.00;;;;;;;-0.86;100.00;97242.19;110438;1241;72239;-66
2023/11/13 01:48:53;;;;;;;12.60;6.80;;;;;;;-0.90;100.00;97250.88;110346;1239;68376;-66
2023/11/13 01:51:23;;;;;;;;;;;;;;;-0.94;100.00;97249.47;110421;1242;69081;-66
2023/11/13 01:54:03;;;;;;;9.50;6.30;;;;;;;-0.97;100.00;97250.23;110392;1242;60451;-66
2023/11/13 01:56:36;;;;;;;10.50;6.60;;;;;;;-0.98;100.00;97248.02;110352;1241;60491;-68
2023/11/13 01:59:08;;;;;;;10.90;7.30;;;;;;;-1.00;100.00;97254.60;110266;1242;72579;-67
2023/11/13 02:01:40;;;;;;;11.30;7.70;;;;;;;-1.02;100.00;97256.52;110268;1243;68538;-66
2023/11/13 02:04:14;;;;;;;25.20;9.60;;;;;;;-1.04;100.00;97253.64;110284;1242;69244;-65
2023/11/13 02:06:46;;;;;;;8.80;5.90;;;;;;;-1.05;100.00;97250.79;110330;1241;60543;-65
2023/11/13 02:09:20;;;;;;;11.80;7.10;;;;;;;-1.04;100.00;97255.89;110378;1242;60487;-66
2023/11/13 02:11:52;;;;;;;10.10;6.80;;;;;;;-1.04;100.00;97256.40;110351;1241;72343;-65
2023/11/13 02:14:26;;;;;;;16.00;7.30;;;;;;;-1.04;100.00;97259.15;110335;1243;69243;-65
2023/11/13 02:17:07;;;;;;;12.60;8.40;;;;;;;-1.04;100.00;97259.47;110309;1243;68573;-66
2023/11/13 02:19:40;;;;;;;12.10;8.40;;;;;;;-1.03;100.00;97267.65;110503;1240;60554;-66
2023/11/13 02:22:14;;;;;;;12.50;8.90;;;;;;;-1.05;100.00;97266.70;110190;1244;60476;-66
2023/11/13 02:24:51;;;;;;;10.70;7.40;;;;;;;-1.07;100.00;97263.68;110384;1244;72225;-65
2023/11/13 02:27:30;;;;;;;14.40;8.60;;;;;;;-1.10;100.00;97266.16;110379;1242;69163;-65
2023/11/13 02:30:11;;;;;;;10.60;7.40;;;;;;;-1.14;100.00;97264.73;110252;1242;69770;-66
2023/11/13 02:32:46;;;;;;;10.20;7.70;;;;;;;-1.17;100.00;97271.13;110129;1243;60562;-65
2023/11/13 02:35:20;;;;;;;13.60;9.10;;;;;;;-1.17;100.00;97269.10;110286;1242;60521;-65
2023/11/13 02:37:53;;;;;;;13.50;8.90;;;;;;;-1.16;100.00;97269.92;110253;1242;72142;-65
2023/11/13 02:40:26;;;;;;;13.60;8.40;;;;;;;-1.16;100.00;97273.52;110306;1242;69123;-65
2023/11/13 02:43:01;;;;;;;11.80;8.00;;;;;;;-1.16;100.00;97273.51;110299;1243;68585;-65
2023/11/13 02:45:32;;;;;;;10.60;7.20;;;;;;;-1.15;100.00;97267.16;110367;1242;60516;-67
2023/11/13 02:48:06;;;;;;;11.20;7.50;;;;;;;-1.10;100.00;97264.10;110459;1241;60791;-65
2023/11/13 02:50:38;;;;;;;13.60;8.90;;;;;;;-1.04;100.00;97258.80;110520;1243;72135;-64
2023/11/13 02:53:10;;;;;;;13.70;8.90;;;;;;;-0.99;100.00;97257.98;110481;1239;68485;-65
2023/11/13 02:55:42;;;;;;;13.10;8.70;;;;;;;-0.98;100.00;97256.92;110477;1241;69167;-65
2023/11/13 02:58:14;;;;;;;16.10;9.70;;;;;;;-0.99;100.00;97256.96;110344;1241;60496;-65
2023/11/13 03:00:48;;;;;;;18.50;9.40;;;;;;;-1.01;100.00;97253.06;110397;1248;60526;-65
2023/11/13 03:03:26;;;;;;;14.10;8.20;;;;;;;-0.98;100.00;97255.20;110339;1245;72228;-65
2023/11/13 03:05:56;;;;;;;17.60;10.30;;;;;;;-0.99;100.00;97254.57;110501;1242;69231;-66
2023/11/13 03:08:29;;;;;;;17.40;9.70;;;;;;;-1.00;100.00;97250.48;110423;1242;69318;-65
2023/11/13 03:11:02;;;;;;;14.90;8.70;;;;;;;-1.01;100.00;97251.38;110265;1245;60523;-65
2023/11/13 03:13:32;;;;;;;12.00;7.30;;;;;;;-1.05;100.00;97248.91;110491;1246;60419;-65
2023/11/13 03:16:10;;;;;;;11.70;7.70;;;;;;;-1.08;100.00;97250.35;110534;1240;71883;-65
2023/11/13 03:18:42;;;;;;;11.40;7.20;;;;;;;-1.11;100.00;97251.12;110453;1242;68321;-65
2023/11/13 03:21:15;;;;;;;9.70;6.30;;;;;;;-1.14;100.00;97251.90;110279;1240;69417;-65
2023/11/13 03:23:50;;;;;;;13.00;7.90;;;;;;;-1.17;100.00;97253.52;110261;1241;60503;-65
2023/11/13 03:26:20;;;;;;;12.10;8.10;;;;;;;-1.19;100.00;97253.09;110255;1241;60546;-65
2023/11/13 03:28:51;;;;;;;12.10;8.40;;;;;;;-1.22;100.00;97258.65;110321;1242;71428;-65
2023/11/13 03:31:26;;;;;;;10.90;6.30;;;;;;;-1.24;100.00;97262.80;110277;1250;69295;-65
2023/11/13 03:33:57;;;;;;;10.40;6.70;;;;;;;-1.22;100.00;97268.71;110300;1242;68267;-65
2023/11/13 03:36:33;;;;;;;11.90;7.20;;;;;;;-1.20;100.00;97271.06;110309;1242;60496;-65
2023/11/13 03:39:05;;;;;;;105.20;14.80;;;;;;;-1.20;100.00;97272.77;110317;1246;60559;-65
2023/11/13 03:41:37;;;;;;;25.00;10.50;;;;;;;-1.24;100.00;97278.52;110332;1243;72196;-65
2023/11/13 03:44:07;;;;;;;12.80;7.90;;;;;;;-1.31;100.00;97280.77;110117;1242;69559;-66
2023/11/13 03:46:38;;;;;;;15.10;9.30;;;;;;;-1.36;100.00;97281.23;110258;1241;67381;-65
2023/11/13 03:49:09;;;;;;;16.20;6.60;;;;;;;-1.40;100.00;97283.91;110308;1242;60547;-65
2023/11/13 03:51:38;;;;;;;9.70;6.30;;;;;;;-1.43;100.00;97276.64;110341;1242;60547;-65
2023/11/13 03:54:09;;;;;;;10.40;6.50;;;;;;;-1.44;100.00;97277.55;110243;1242;71616;-65
2023/11/13 03:56:42;;;;;;;11.40;7.10;;;;;;;-1.47;100.00;97277.27;110294;1242;68071;-65
2023/11/13 03:59:13;;;;;;;9.50;5.50;;;;;;;-1.49;100.00;97282.62;110233;1242;68418;-65
2023/11/13 04:01:49;;;;;;;11.70;6.00;;;;;;;-1.52;100.00;97283.23;110219;1244;60923;-65
2023/11/13 04:04:18;;;;;;;90.30;14.90;;;;;;;-1.57;100.00;97296.34;110223;1242;60538;-65
2023/11/13 04:06:49;;;;;;;11.90;7.90;;;;;;;-1.61;100.00;97302.11;110344;1242;72188;-65
2023/11/13 04:09:19;;;;;;;19.10;7.60;;;;;;;-1.66;100.00;97310.10;110301;1243;69892;-65
2023/11/13 04:11:49;;;;;;;9.60;5.70;;;;;;;-1.71;100.00;97314.16;110391;1242;69310;-65
2023/11/13 04:14:19;;;;;;;10.40;5.20;;;;;;;-1.74;100.00;97317.49;110317;1243;60464;-64
2023/11/13 04:16:51;;;;;;;10.20;6.70;;;;;;;-1.76;100.00;97326.06;110379;1242;60922;-65
2023/11/13 04:19:24;;;;;;;;;;;;;;;-1.77;100.00;97329.66;110196;1246;72295;-65
2023/11/13 04:21:55;;;;;;;7.10;5.40;;;;;;;-1.76;100.00;97330.66;110264;1243;68362;-64
2023/11/13 04:24:25;;;;;;;10.60;6.20;;;;;;;-1.78;100.00;97329.87;110256;1243;68530;-65
2023/11/13 04:26:55;;;;;;;7.00;5.00;;;;;;;-1.83;100.00;97338.02;110197;1241;60555;-65
2023/11/13 04:29:26;;;;;;;7.70;4.20;;;;;;;-1.86;100.00;97341.84;110208;1242;60471;-66
2023/11/13 04:31:57;;;;;;;8.10;5.40;;;;;;;-1.88;100.00;97344.81;110286;1242;72061;-66
2023/11/13 04:34:28;;;;;;;7.70;5.20;;;;;;;-1.89;100.00;97356.45;110363;1242;69121;-66
2023/11/13 04:36:59;;;;;;;10.00;6.70;;;;;;;-1.89;100.00;97364.16;110427;1239;67517;-67
2023/11/13 04:39:28;;;;;;;12.10;7.40;;;;;;;-1.90;100.00;97366.56;110346;1242;60602;-66
2023/11/13 04:41:58;;;;;;;7.20;4.70;;;;;;;-1.92;100.00;97366.60;110259;1242;60426;-64
2023/11/13 04:44:28;;;;;;;7.90;5.60;;;;;;;-1.93;100.00;97366.81;110360;1242;73178;-64
2023/11/13 04:46:59;;;;;;;8.10;5.00;;;;;;;-1.96;100.00;97374.04;110523;1241;69875;-65
2023/11/13 04:49:29;;;;;;;7.10;5.10;;;;;;;-1.99;100.00;97374.29;110244;1241;68441;-65
2023/11/13 04:52:00;;;;;;;12.30;7.60;;;;;;;-2.01;100.00;97374.85;110236;1243;60537;-64
2023/11/13 04:54:30;;;;;;;17.60;12.00;;;;;;;-1.99;100.00;97380.42;110290;1243;60791;-65
2023/11/13 04:57:00;;;;;;;;;;;;;;;-1.96;100.00;97381.89;110270;1242;71640;-65
2023/11/13 04:59:31;;;;;;;14.70;9.90;;;;;;;-1.95;100.00;97372.30;110242;1242;68565;-64
2023/11/13 05:02:02;;;;;;;19.40;12.80;;;;;;;-1.96;100.00;97363.46;110271;1243;69272;-66
2023/11/13 05:04:32;;;;;;;22.20;13.10;;;;;;;-1.98;100.00;97358.55;110239;1245;60545;-65
2023/11/13 05:07:02;;;;;;;40.00;25.60;;;;;;;-1.99;100.00;97347.12;110293;1242;60479;-65
2023/11/13 05:09:31;;;;;;;78.20;43.90;;;;;;;-1.95;100.00;97342.08;110285;1242;71853;-65
2023/11/13 05:12:02;;;;;;;32.70;21.50;;;;;;;-1.92;100.00;97343.21;110304;1243;69116;-65
2023/11/13 05:14:40;;;;;;;35.90;20.80;;;;;;;-1.88;100.00;97344.65;110285;1242;68565;-64
2023/11/13 05:17:09;;;;;;;25.50;16.50;;;;;;;-1.88;100.00;97338.67;110392;1243;60493;-65
2023/11/13 05:19:40;;;;;;;35.40;15.40;;;;;;;-1.92;100.00;97340.81;110332;1243;60497;-65
2023/11/13 05:22:10;;;;;;;48.40;20.50;;;;;;;-1.96;100.00;97333.23;110287;1242;71036;-65
2023/11/13 05:24:41;;;;;;;;;;;;;;;-2.01;100.00;97335.58;110301;1241;69220;-65
2023/11/13 05:27:10;;;;;;;39.00;17.70;;;;;;;-2.09;100.00;97338.98;110343;1242;69297;-65
2023/11/13 05:29:41;;;;;;;26.00;12.40;;;;;;;-2.12;100.00;97339.06;110316;1242;60525;-65
2023/11/13 05:32:11;;;;;;;15.60;10.40;;;;;;;-2.13;100.00;97339.23;110417;1240;60541;-65
2023/11/13 05:34:42;;;;;;;15.20;8.70;;;;;;;-2.13;100.00;97341.46;110351;1242;72234;-65
2023/11/13 05:37:13;;;;;;;13.90;9.30;;;;;;;-2.10;100.00;97346.88;110404;1241;68701;-65
2023/11/13 05:39:42;;;;;;;;;;;;;;;-2.08;100.00;97352.11;110494;1243;68710;-65
2023/11/13 05:42:11;;;;;;;9.30;7.00;;;;;;;-2.06;100.00;97355.13;110468;1241;60544;-65
2023/11/13 05:44:41;;;;;;;18.70;11.00;;;;;;;-2.03;100.00;97351.50;110303;1242;60485;-65
2023/11/13 05:47:11;;;;;;;14.30;10.60;;;;;;;-2.03;100.00;97351.83;110434;1242;71322;-65
2023/11/13 05:49:41;;;;;;;14.50;9.70;;;;;;;-2.01;100.00;97353.48;110383;1241;69311;-65
2023/11/13 05:52:11;;;;;;;13.70;8.60;;;;;;;-1.98;100.00;97355.14;110393;1242;69242;-65
2023/11/13 05:54:41;;;;;;;12.90;9.10;;;;;;;-1.93;100.00;97354.34;110193;1242;60552;-64
2023/11/13 05:57:11;;;;;;;12.50;7.20;;;;;;;-1.90;100.00;97353.40;110315;1241;60554;-65
2023/11/13 05:59:41;;;;;;;15.10;9.80;;;;;;;-1.85;100.00;97353.63;110277;1242;72175;-65
2023/11/13 06:02:11;;;;;;;13.20;7.80;;;;;;;-1.78;100.00;97356.36;110297;1242;69644;-65
2023/11/13 06:04:48;;;;;;;12.20;9.30;;;;;;;-1.70;100.00;97359.23;110256;1244;69286;-65
2023/11/13 06:07:20;;;;;;;15.80;9.50;;;;;;;-1.58;100.00;97356.54;110254;1242;60535;-65
2023/11/13 06:09:50;;;;;;;13.40;8.50;;;;;;;-1.47;100.00;97357.14;110204;1242;60521;-66
2023/11/13 06:12:20;;;;;;;13.30;8.70;;;;;;;-1.38;100.00;97357.54;110227;1241;72159;-66
2023/11/13 06:14:50;;;;;;;24.50;16.80;;;;;;;-1.28;100.00;97363.80;110252;1242;69352;-65
2023/11/13 06:17:23;;;;;;;46.50;25.20;;;;;;;-1.24;100.00;97360.10;110247;1244;69892;-65
2023/11/13 06:19:54;;;;;;;40.20;23.10;;;;;;;-1.24;100.00;97359.41;110236;1243;60476;-65
2023/11/13 06:22:24;;;;;;;34.60;19.60;;;;;;;-1.21;100.00;97355.04;110218;1242;60432;-66
2023/11/13 06:24:54;;;;;;;30.60;20.20;;;;;;;-1.16;100.00;97353.55;110216;1242;72090;-65
2023/11/13 06:27:24;;;;;;;27.10;16.90;;;;;;;-1.11;100.00;97351.88;110315;1241;68904;-65
2023/11/13 06:29:56;;;;;;;23.30;13.30;;;;;;;-1.08;100.00;97351.95;110369;1243;69523;-66
2023/11/13 06:32:28;;;;;;;22.70;13.80;;;;;;;-1.03;100.00;97359.88;110459;1238;60485;-66
2023/11/13 06:34:57;;;;;;;25.40;14.00;;;;;;;-0.96;100.00;97362.76;110379;1240;60468;-65
2023/11/13 06:37:26;;;;;;;18.70;12.20;;;;;;;-0.82;100.00;97359.29;110310;1242;72793;-64
2023/11/13 06:39:56;;;;;;;27.10;18.50;;;;;;;-0.69;100.00;97358.23;110333;1241;67574;-64
2023/11/13 06:42:26;;;;;;;;;;;;;;;-0.57;100.00;97360.45;110250;1242;69918;-65
2023/11/13 06:44:56;;;;;;;20.80;12.50;;;;;;;-0.45;100.00;97359.07;110365;1241;60486;-66
2023/11/13 06:47:25;;;;;;;22.30;13.50;;;;;;;-0.26;100.00;97352.34;110450;1241;60424;-65
2023/11/13 06:49:55;;;;;;;20.90;13.20;;;;;;;0.03;100.00;97354.67;110575;1240;71437;-66
2023/11/13 06:52:24;;;;;;;21.50;13.00;;;;;;;0.51;100.00;97359.43;110508;1241;68482;-65
2023/11/13 06:54:58;;;;;;;21.50;14.40;;;;;;;1.18;100.00;97364.34;110347;1242;69599;-65
2023/11/13 06:57:27;;;;;;;22.20;13.60;;;;;;;1.87;100.00;97363.46;110466;1244;60550;-66
2023/11/13 06:59:57;;;;;;;23.80;15.10;;;;;;;2.52;100.00;97355.73;110382;1241;60479;-66
2023/11/13 07:02:27;;;;;;;18.10;14.10;;;;;;;3.14;100.00;97355.16;110340;1244;71458;-66
2023/11/13 07:04:57;;;;;;;16.90;12.60;;;;;;;3.78;100.00;97357.59;110330;1241;68777;-65
2023/11/13 07:07:26;;;;;;;13.90;10.60;;;;;;;4.44;100.00;97358.22;110384;1240;69227;-65
2023/11/13 07:09:56;;;;;;;14.10;10.00;;;;;;;5.23;100.00;97359.05;110292;1242;60495;-66
2023/11/13 07:12:26;;;;;;;10.50;7.50;;;;;;;5.83;95.56;97359.98;110302;1242;60440;-66
2023/11/13 07:14:57;;;;;;;10.60;7.60;;;;;;;6.28;92.22;97356.17;110389;1241;72781;-68
2023/11/13 07:17:27;;;;;;;;;;;;;;;6.76;88.21;97357.89;110374;1242;69479;-66
2023/11/13 07:19:56;;;;;;;8.90;6.80;;;;;;;7.03;84.68;97358.42;110401;1241;69927;-66
2023/11/13 07:22:28;;;;;;;12.30;10.80;;;;;;;7.15;85.67;97360.27;110479;1242;60556;-67
2023/11/13 07:24:58;;;;;;;16.20;12.40;;;;;;;7.49;83.52;97363.96;110452;1241;60479;-67
2023/11/13 07:27:28;;;;;;;18.80;16.00;;;;;;;8.00;84.32;97367.57;110371;1242;72261;-67
2023/11/13 07:29:57;;;;;;;15.90;13.80;;;;;;;7.93;81.71;97365.38;110318;1241;68593;-67
2023/11/13 07:32:27;;;;;;;16.10;13.70;;;;;;;8.04;79.89;97365.39;110352;1241;69241;-67
2023/11/13 07:34:57;;;;;;;16.10;13.80;;;;;;;7.90;80.03;97366.27;110509;1248;60457;-65
2023/11/13 07:37:26;;;;;;;13.90;12.10;;;;;;;7.68;83.73;97367.45;110309;1241;60507;-67
2023/11/13 07:39:54;;;;;;;15.50;12.40;;;;;;;7.54;82.86;97364.15;110323;1242;72602;-65
2023/11/13 07:42:24;;;;;;;15.70;13.20;;;;;;;7.14;83.26;97365.73;110334;1242;69633;-66
2023/11/13 07:44:56;;;;;;;16.60;14.80;;;;;;;6.84;84.58;97363.33;110254;1241;69967;-66
2023/11/13 07:47:28;;;;;;;15.40;13.80;;;;;;;6.77;85.41;97361.82;110610;1242;60870;-65
2023/11/13 07:49:57;;;;;;;16.70;14.60;;;;;;;6.62;86.48;97366.89;110397;1241;60465;-65
2023/11/13 07:52:27;;;;;;;15.10;13.00;;;;;;;6.78;88.07;97369.04;110610;1242;72181;-65
2023/11/13 07:54:58;;;;;;;12.30;11.10;;;;;;;7.01;87.24;97372.75;110646;1239;68361;-65
2023/11/13 07:57:28;;;;;;;11.80;10.10;;;;;;;7.14;87.12;97374.91;110590;1242;69294;-65
2023/11/13 07:59:57;;;;;;;14.00;12.60;;;;;;;6.75;86.12;97369.92;110465;1241;60508;-65
2023/11/13 08:02:26;;;;;;;13.50;12.10;;;;;;;6.80;86.83;97370.81;110604;1242;60457;-67
2023/11/13 08:04:56;;;;;;;13.80;12.40;;;;;;;6.76;85.62;97373.17;110517;1238;71418;-68
2023/11/13 08:07:25;;;;;;;;;;;;;;;7.17;85.32;97372.46;110616;1241;69087;-65
2023/11/13 08:09:54;;;;;;;16.80;14.50;;;;;;;7.85;83.39;97374.19;110528;1238;69260;-75
2023/11/13 08:12:23;;;;;;;14.10;12.30;;;;;;;8.70;78.98;97375.23;110508;1239;60458;-67
2023/11/13 08:14:53;;;;;;;14.80;13.40;;;;;;;9.53;75.70;97376.59;110437;1241;60436;-67
2023/11/13 08:17:24;;;;;;;12.80;11.40;;;;;;;10.17;73.00;97370.17;110423;1242;71346;-67
2023/11/13 08:19:59;;;;;;;10.60;9.30;;;;;;;10.99;73.05;97368.51;110341;1241;68589;-66
2023/11/13 08:22:29;;;;;;;11.40;9.50;;;;;;;11.75;70.27;97369.35;110347;1240;69352;-66
2023/11/13 08:24:59;;;;;;;11.10;10.00;;;;;;;11.71;63.33;97373.64;110216;1241;60544;-65
2023/11/13 08:27:29;;;;;;;9.70;8.80;;;;;;;12.02;66.38;97376.29;110417;1241;60582;-64
2023/11/13 08:29:58;;;;;;;7.80;6.70;;;;;;;11.93;61.31;97379.45;110239;1242;72625;-66
2023/11/13 08:32:27;;;;;;;8.20;7.40;;;;;;;12.53;65.22;97377.45;110286;1241;69276;-64
2023/11/13 08:34:58;;;;;;;7.20;6.00;;;;;;;13.36;68.14;97376.52;110266;1242;69842;-64
2023/11/13 08:37:27;;;;;;;6.60;5.90;;;;;;;13.75;60.17;97375.89;110251;1242;60543;-66
2023/11/13 08:39:57;;;;;;;7.00;6.30;;;;;;;14.12;65.79;97374.55;110301;1241;60517;-66
2023/11/13 08:42:27;;;;;;;7.50;6.20;;;;;;;14.63;58.90;97373.91;110258;1241;72175;-65
2023/11/13 08:45:00;;;;;;;5.60;5.10;;;;;;;14.42;57.32;97372.96;110274;1242;69376;-64
2023/11/13 08:47:33;;;;;;;4.70;4.10;;;;;;;14.71;54.97;97365.16;110238;1241;69937;-65
2023/11/13 08:50:07;;;;;;;4.80;4.30;;;;;;;14.37;51.35;97360.25;110209;1241;60466;-65
2023/11/13 08:52:38;;;;;;;4.20;3.80;;;;;;;14.97;55.53;97358.01;110211;1240;60544;-64
2023/11/13 08:55:12;;;;;;;4.50;4.00;;;;;;;14.77;53.29;97362.11;110231;1241;72764;-64
2023/11/13 08:57:43;;;;;;;3.90;3.30;;;;;;;15.24;51.14;97364.63;110283;1242;69682;-63
2023/11/13 09:00:29;;;;;;;3.90;3.50;;;;;;;15.72;55.46;97365.88;110237;1249;68508;-63
2023/11/13 09:02:59;;;;;;;4.80;4.40;;;;;;;15.49;48.93;97360.41;110235;1241;60501;-65
2023/11/13 09:05:29;;;;;;;5.20;4.70;;;;;;;15.60;49.06;97362.58;110230;1242;60465;-63
2023/11/13 09:08:01;;;;;;;4.10;3.70;;;;;;;15.08;47.82;97358.73;110219;1240;72215;-66
2023/11/13 09:10:31;;;;;;;6.30;4.90;;;;;;;14.77;49.51;97362.45;110298;1241;69233;-66
2023/11/13 09:13:03;;;;;;;5.20;4.50;;;;;;;14.20;48.47;97362.48;110247;1242;69902;-65
2023/11/13 09:15:34;;;;;;;4.20;3.60;;;;;;;14.32;49.42;97358.56;110270;1241;60535;-66
2023/11/13 09:18:09;;;;;;;4.70;4.10;;;;;;;14.51;48.86;97355.69;110351;1241;60495;-65
2023/11/13 09:20:42;;;;;;;4.90;4.20;;;;;;;14.88;49.24;97353.42;109832;1241;676294;-66
2023/11/13 09:23:11;;;;;;;4.40;4.00;;;;;;;14.55;47.88;97348.31;110297;1243;69189;-64
2023/11/13 09:25:42;;;;;;;13.20;5.00;;;;;;;14.49;47.26;97350.18;110302;1240;69539;-64
2023/11/13 09:28:12;;;;;;;10.80;4.10;;;;;;;13.99;47.93;97353.76;110214;1243;60486;-64
2023/11/13 09:30:41;;;;;;;4.20;3.70;;;;;;;14.58;48.85;97350.70;110243;1250;60473;-64
2023/11/13 09:33:11;;;;;;;5.60;4.70;;;;;;;14.54;48.38;97352.10;110257;1241;72783;-65
2023/11/13 09:35:41;;;;;;;5.40;3.80;;;;;;;14.99;47.20;97353.25;110243;1244;69121;-66
2023/11/13 09:38:11;;;;;;;3.30;2.70;;;;;;;14.66;45.73;97340.20;110205;1243;68558;-65
2023/11/13 09:40:40;;;;;;;5.00;3.90;;;;;;;14.64;45.66;97333.33;110294;1241;60589;-66
2023/11/13 09:43:39;;;;;;;4.00;3.50;;;;;;;14.48;45.32;97328.40;110301;1241;60480;-65
2023/11/13 09:46:12;;;;;;;4.40;3.40;;;;;;;14.78;45.43;97330.13;110287;1241;72140;-66
2023/11/13 09:49:10;;;;;;;6.60;4.00;;;;;;;15.48;44.71;97327.11;110262;1241;69263;-69
2023/11/13 09:51:42;;;;;;;5.00;4.10;;;;;;;16.68;44.05;97322.61;110261;1241;69272;-67
2023/11/13 09:54:13;;;;;;;7.70;6.00;;;;;;;16.65;44.81;97323.06;110247;1242;60858;-66
2023/11/13 09:56:42;;;;;;;6.00;5.40;;;;;;;17.14;43.76;97315.95;110322;1240;60495;-67
2023/11/13 09:59:15;;;;;;;7.30;6.40;;;;;;;16.78;42.28;97309.84;110263;1241;72284;-64
2023/11/13 10:01:44;;;;;;;6.40;4.50;;;;;;;17.27;42.98;97305.77;110305;1241;69314;-63
2023/11/13 10:04:13;;;;;;;5.10;4.40;;;;;;;16.97;41.87;97298.64;110293;1249;69326;-65
2023/11/13 10:06:50;;;;;;;5.60;5.10;;;;;;;17.38;43.31;97294.77;110293;1242;60545;-63
2023/11/13 10:09:22;;;;;;;5.10;4.60;;;;;;;17.79;41.99;97285.77;110252;1242;60557;-64
2023/11/13 10:11:52;;;;;;;4.80;4.00;;;;;;;18.04;42.33;97276.77;110234;1241;72274;-64
2023/11/13 10:14:25;;;;;;;4.50;4.10;;;;;;;18.97;42.44;97268.85;110261;1241;69784;-63
2023/11/13 10:17:03;;;;;;;4.20;3.80;;;;;;;19.31;40.43;97261.23;110132;1244;69268;-63
2023/11/13 10:19:34;;;;;;;3.40;3.00;;;;;;;19.69;38.64;97252.59;110254;1240;60457;-66
2023/11/13 10:22:16;;;;;;;3.40;2.80;;;;;;;19.52;39.08;97253.23;110215;1241;60430;-64
2023/11/13 10:24:58;;;;;;;3.00;2.70;;;;;;;20.05;40.12;97248.48;110223;1241;72605;-66
2023/11/13 10:27:29;;;;;;;3.30;2.60;;;;;;;20.29;39.06;97242.55;110247;1241;69140;-64
2023/11/13 10:30:03;;;;;;;3.00;2.30;;;;;;;20.22;38.06;97237.30;110235;1241;69271;-66
2023/11/13 10:32:39;;;;;;;2.50;1.90;;;;;;;20.33;37.44;97229.88;110180;1241;60461;-65
2023/11/13 10:35:10;;;;;;;3.00;2.40;;;;;;;19.96;35.39;97221.01;110226;1241;60462;-63
2023/11/13 10:37:58;;;;;;;2.50;2.30;;;;;;;20.01;35.97;97214.89;110245;1241;71998;-64
2023/11/13 10:40:27;;;;;;;2.90;2.20;;;;;;;19.48;36.15;97214.21;110226;1241;69903;-63
2023/11/13 10:42:57;;;;;;;3.10;1.80;;;;;;;19.38;36.90;97210.65;110238;1240;69788;-66
2023/11/13 10:45:26;;;;;;;3.00;1.80;;;;;;;19.19;36.41;97212.40;110251;1242;60546;-63
2023/11/13 10:47:58;;;;;;;2.70;1.70;;;;;;;19.03;35.54;97207.27;110231;1241;60481;-63
2023/11/13 10:50:30;;;;;;;2.00;1.80;;;;;;;19.17;36.09;97202.14;110219;1241;72520;-63
2023/11/13 10:53:03;;;;;;;2.10;1.50;;;;;;;19.27;36.66;97204.63;110214;1241;69195;-65
2023/11/13 10:55:33;;;;;;;3.90;1.90;;;;;;;19.74;36.52;97201.06;110252;1242;68542;-63
2023/11/13 10:58:02;;;;;;;2.30;1.70;;;;;;;19.57;35.78;97191.89;110243;1241;60544;-64
2023/11/13 11:00:32;;;;;;;;;;;;;;;19.48;35.64;97183.39;110227;1241;60464;-63
2023/11/13 11:03:06;;;;;;;2.60;1.90;;;;;;;19.60;36.16;97179.34;110259;1241;71378;-64
2023/11/13 11:05:39;;;;;;;3.10;1.70;;;;;;;19.80;36.04;97171.89;110253;1241;69191;-66
2023/11/13 11:08:12;;;;;;;2.30;1.80;;;;;;;19.97;35.61;97167.20;110233;1245;69380;-66
2023/11/13 11:10:46;;;;;;;2.40;1.70;;;;;;;20.13;35.64;97170.78;110240;1241;61078;-65
2023/11/13 11:13:17;;;;;;;2.50;1.60;;;;;;;20.28;35.50;97173.54;110113;1244;60449;-65
2023/11/13 11:16:21;;;;;;;3.00;2.10;;;;;;;20.19;36.05;97165.48;110219;1241;72774;-63
2023/11/13 11:19:18;;;;;;;2.50;1.70;;;;;;;20.36;35.16;97162.96;110241;1240;69789;-63
2023/11/13 11:21:59;;;;;;;1.90;1.30;;;;;;;19.22;36.22;97162.38;110177;1240;69234;-65
2023/11/13 11:24:47;;;;;;;2.00;1.50;;;;;;;19.55;35.83;97164.84;110220;1240;60509;-63
2023/11/13 11:27:34;;;;;;;2.10;1.80;;;;;;;20.42;35.24;97165.55;110203;1243;60539;-65
2023/11/13 11:30:18;;;;;;;2.50;1.30;;;;;;;20.57;34.59;97164.83;110238;1240;72554;-64
2023/11/13 11:32:57;;;;;;;4.30;1.90;;;;;;;20.58;33.27;97164.16;110230;1240;68530;-63
2023/11/13 11:35:31;;;;;;;1.50;1.20;;;;;;;20.19;32.90;97161.92;110101;1244;69322;-63
2023/11/13 11:38:17;;;;;;;2.70;2.10;;;;;;;19.94;33.94;97160.83;110199;1241;60509;-63
2023/11/13 11:40:48;;;;;;;1.70;1.50;;;;;;;20.07;34.53;97169.43;110195;1241;60527;-63